createdAt,value
2022-10-24T00:00:41.167Z,980.8
2022-10-24T00:02:42.716Z,980.8
2022-10-24T00:04:43.873Z,980.9
2022-10-24T00:06:45.477Z,980.9
2022-10-24T00:08:47.098Z,981
2022-10-24T00:10:48.727Z,980.9
2022-10-24T00:12:50.023Z,981
2022-10-24T00:14:50.946Z,981
2022-10-24T00:16:52.768Z,981
2022-10-24T00:18:54.304Z,981
2022-10-24T00:20:55.194Z,980.9
2022-10-24T00:22:56.537Z,981
2022-10-24T00:24:57.564Z,981
2022-10-24T00:26:58.659Z,980.9
2022-10-24T00:31:02.237Z,980.9
2022-10-24T00:33:03.695Z,981
2022-10-24T00:35:04.691Z,981
2022-10-24T00:37:05.574Z,981.1
2022-10-24T00:39:07.238Z,981
2022-10-24T00:41:08.758Z,981
2022-10-24T00:43:10.197Z,980.9
2022-10-24T00:45:11.410Z,980.9
2022-10-24T00:47:13.048Z,980.9
2022-10-24T00:49:14.940Z,981
2022-10-24T00:51:16.709Z,980.9
2022-10-24T00:53:17.985Z,980.9
2022-10-24T00:55:19.132Z,980.8
2022-10-24T00:57:20.207Z,980.9
2022-10-24T00:59:21.636Z,980.9
2022-10-24T01:01:22.579Z,981
2022-10-24T01:03:24.271Z,980.9
2022-10-24T01:05:25.930Z,980.9
2022-10-24T01:07:27.184Z,980.9
2022-10-24T01:09:28.962Z,980.9
2022-10-24T01:11:29.965Z,980.9
2022-10-24T01:13:31.553Z,980.9
2022-10-24T01:15:33.368Z,981.1
2022-10-24T01:17:35.117Z,981.1
2022-10-24T01:21:37.137Z,981.1
2022-10-24T01:23:38.676Z,981
2022-10-24T01:25:40.223Z,981
2022-10-24T01:27:41.179Z,981.1
2022-10-24T01:29:42.662Z,981
2022-10-24T01:31:43.793Z,981
2022-10-24T01:33:45.552Z,980.9
2022-10-24T01:35:47.307Z,980.9
2022-10-24T01:37:48.482Z,980.9
2022-10-24T01:39:49.694Z,981
2022-10-24T01:41:50.754Z,980.9
2022-10-24T01:45:53.174Z,980.9
2022-10-24T01:47:55.022Z,980.9
2022-10-24T01:49:56.871Z,980.9
2022-10-24T01:51:57.971Z,980.8
2022-10-24T01:53:59.416Z,980.8
2022-10-24T01:56:01.222Z,980.6
2022-10-24T01:58:02.323Z,980.7
2022-10-24T02:00:03.560Z,980.8
2022-10-24T02:02:04.640Z,980.7
2022-10-24T02:04:05.571Z,980.7
2022-10-24T02:06:06.670Z,980.7
2022-10-24T02:08:08.279Z,980.6
2022-10-24T02:10:09.200Z,980.6
2022-10-24T02:12:10.237Z,980.5
2022-10-24T02:14:11.211Z,980.5
2022-10-24T02:16:13.041Z,980.5
2022-10-24T02:18:13.954Z,980.4
2022-10-24T02:20:15.497Z,980.4
2022-10-24T02:22:16.574Z,980.4
2022-10-24T02:26:19.318Z,980.4
2022-10-24T02:28:20.984Z,980.4
2022-10-24T02:30:22.653Z,980.5
2022-10-24T02:32:23.609Z,980.5
2022-10-24T02:34:25.241Z,980.6
2022-10-24T02:36:27.037Z,980.6
2022-10-24T02:38:28.230Z,980.6
2022-10-24T02:40:29.507Z,980.6
2022-10-24T02:42:30.838Z,980.6
2022-10-24T02:44:32.074Z,980.6
2022-10-24T02:46:33.204Z,980.6
2022-10-24T02:48:34.749Z,980.6
2022-10-24T02:50:36.469Z,980.7
2022-10-24T02:52:38.003Z,980.5
2022-10-24T02:54:39.656Z,980.4
2022-10-24T02:56:40.619Z,980.5
2022-10-24T02:58:42.420Z,980.5
2022-10-24T03:02:45.806Z,980.4
2022-10-24T03:04:46.844Z,980.5
2022-10-24T03:06:48.466Z,980.5
2022-10-24T03:08:49.994Z,980.5
2022-10-24T03:10:51.218Z,980.4
2022-10-24T03:12:52.795Z,980.4
2022-10-24T03:14:54.334Z,980.4
2022-10-24T03:16:55.918Z,980.5
2022-10-24T03:18:57.131Z,980.5
2022-10-24T03:20:58.924Z,980.5
2022-10-24T03:23:00.602Z,980.4
2022-10-24T03:25:01.856Z,980.4
2022-10-24T03:27:02.860Z,980.4
2022-10-24T03:29:04.497Z,980.4
2022-10-24T03:31:05.640Z,980.4
2022-10-24T03:33:07.244Z,980.4
2022-10-24T03:35:10.332Z,980.4
2022-10-24T03:37:09.713Z,980.3
2022-10-24T03:39:10.856Z,980.4
2022-10-24T03:41:12.191Z,980.4
2022-10-24T03:43:14.012Z,980.4
2022-10-24T03:45:15.629Z,980.4
2022-10-24T03:47:17.424Z,980.5
2022-10-24T03:51:20.071Z,980.6
2022-10-24T03:53:21.553Z,980.6
2022-10-24T03:55:23.010Z,980.7
2022-10-24T03:57:24.907Z,980.6
2022-10-24T03:59:25.872Z,980.6
2022-10-24T04:01:27.228Z,980.7
2022-10-24T04:03:29.048Z,980.7
2022-10-24T04:05:30.016Z,980.7
2022-10-24T04:07:31.436Z,980.6
2022-10-24T04:09:32.495Z,980.7
2022-10-24T04:11:34.400Z,980.8
2022-10-24T04:13:36.010Z,980.8
2022-10-24T04:15:37.011Z,980.8
2022-10-24T04:17:38.814Z,980.8
2022-10-24T04:19:40.309Z,980.7
2022-10-24T04:21:41.409Z,980.7
2022-10-24T04:23:42.954Z,980.7
2022-10-24T04:25:44.647Z,980.7
2022-10-24T04:27:46.467Z,980.7
2022-10-24T04:29:48.171Z,980.7
2022-10-24T04:33:50.905Z,980.6
2022-10-24T04:35:52.231Z,980.6
2022-10-24T04:37:53.992Z,980.6
2022-10-24T04:39:55.021Z,980.5
2022-10-24T04:41:56.613Z,980.5
2022-10-24T04:43:58.343Z,980.5
2022-10-24T04:45:59.511Z,980.6
2022-10-24T04:48:00.451Z,980.5
2022-10-24T04:50:01.926Z,980.5
2022-10-24T04:52:12.172Z,980.5
2022-10-24T04:54:05.009Z,980.4
2022-10-24T04:56:06.054Z,980.4
2022-10-24T04:58:07.131Z,980.5
2022-10-24T05:00:08.220Z,980.5
2022-10-24T05:02:09.673Z,980.6
2022-10-24T05:04:10.771Z,980.5
2022-10-24T05:06:12.441Z,980.6
2022-10-24T05:08:13.583Z,980.6
2022-10-24T05:10:15.004Z,980.5
2022-10-24T05:12:16.861Z,980.4
2022-10-24T05:14:18.637Z,980.3
2022-10-24T05:16:19.932Z,980.3
2022-10-24T05:18:20.823Z,980.3
2022-10-24T05:20:22.618Z,980.2
2022-10-24T05:22:23.990Z,980.2
2022-10-24T05:24:25.396Z,980.2
2022-10-24T05:26:27.287Z,980.2
2022-10-24T05:28:28.952Z,980.2
2022-10-24T05:32:31.515Z,980.3
2022-10-24T05:34:32.751Z,980.4
2022-10-24T05:36:33.752Z,980.4
2022-10-24T05:38:34.687Z,980.3
2022-10-24T05:40:35.998Z,980.2
2022-10-24T05:42:37.410Z,980.2
2022-10-24T05:44:39.231Z,980.2
2022-10-24T05:46:41.113Z,980.3
2022-10-24T05:48:42.412Z,980.5
2022-10-24T05:50:44.164Z,980.6
2022-10-24T05:52:46.953Z,980.7
2022-10-24T05:54:55.513Z,980.7
2022-10-24T05:56:48.896Z,980.7
2022-10-24T05:58:50.289Z,980.8
2022-10-24T06:00:53.932Z,980.9
2022-10-24T06:02:52.869Z,980.9
2022-10-24T06:03:36.646Z,981
2022-10-24T06:05:37.687Z,981.2
2022-10-24T06:07:38.705Z,981.4
2022-10-24T06:09:39.692Z,981.5
2022-10-24T06:11:40.714Z,981.9
2022-10-24T06:13:41.851Z,982.1
2022-10-24T06:15:42.810Z,982.6
2022-10-24T06:17:44.578Z,982.4
2022-10-24T06:19:46.097Z,982.1
2022-10-24T06:21:47.755Z,982
2022-10-24T06:23:49.326Z,982.2
2022-10-24T06:25:50.531Z,982
2022-10-24T06:27:52.192Z,981.9
2022-10-24T06:29:53.934Z,982.1
2022-10-24T06:31:55.085Z,982.1
2022-10-24T06:33:56.210Z,981.9
2022-10-24T06:35:57.707Z,981.8
2022-10-24T06:37:59.208Z,981.7
2022-10-24T06:40:00.307Z,981.3
2022-10-24T06:42:01.298Z,980.9
2022-10-24T06:44:02.723Z,981.6
2022-10-24T06:46:04.168Z,981.7
2022-10-24T06:48:05.580Z,981.8
2022-10-24T06:50:06.476Z,981.9
2022-10-24T06:52:07.577Z,981.8
2022-10-24T06:54:09.334Z,981.8
2022-10-24T06:56:11.057Z,981.9
2022-10-24T06:58:12.348Z,981.8
2022-10-24T07:00:13.970Z,981.8
2022-10-24T07:02:15.154Z,981.8
2022-10-24T07:04:16.694Z,981.8
2022-10-24T07:06:17.981Z,981.9
2022-10-24T07:08:19.256Z,981.7
2022-10-24T07:10:20.562Z,981.7
2022-10-24T07:12:21.728Z,981.7
2022-10-24T07:14:23.300Z,981.7
2022-10-24T07:16:24.488Z,981.6
2022-10-24T07:18:25.686Z,981.6
2022-10-24T07:20:27.472Z,981.7
2022-10-24T07:22:29.297Z,981.7
2022-10-24T07:24:29.491Z,981.8
2022-10-24T07:26:30.433Z,981.8
2022-10-24T07:28:31.477Z,981.8
2022-10-24T07:30:32.465Z,981.8
2022-10-24T07:34:35.337Z,982
2022-10-24T07:36:40.091Z,982
2022-10-24T07:38:38.351Z,981.9
2022-10-24T07:40:39.794Z,981.9
2022-10-24T07:42:41.013Z,981.8
2022-10-24T07:44:42.670Z,981.8
2022-10-24T07:46:43.981Z,981.9
2022-10-24T07:48:45.703Z,981.8
2022-10-24T07:50:47.627Z,981.9
2022-10-24T07:52:49.212Z,982
2022-10-24T07:54:50.088Z,981.9
2022-10-24T07:56:52.965Z,981.8
2022-10-24T07:58:52.784Z,981.6
2022-10-24T08:00:53.758Z,981.6
2022-10-24T08:04:57.286Z,981.2
2022-10-24T08:06:57.503Z,981.2
2022-10-24T08:08:58.517Z,981.3
2022-10-24T08:13:02.053Z,981.7
2022-10-24T08:15:03.564Z,981.6
2022-10-24T08:17:05.354Z,981.5
2022-10-24T08:19:07.212Z,981.5
2022-10-24T08:21:08.710Z,981.7
2022-10-24T08:23:10.410Z,981.6
2022-10-24T08:25:11.571Z,981.5
2022-10-24T08:27:12.859Z,981.4
2022-10-24T08:29:14.332Z,981
2022-10-24T08:31:15.241Z,981
2022-10-24T08:33:18.579Z,980.9
2022-10-24T08:35:18.030Z,981.1
2022-10-24T08:37:19.097Z,981
2022-10-24T08:39:19.993Z,981.3
2022-10-24T08:41:21.502Z,981.3
2022-10-24T08:43:23.168Z,981.5
2022-10-24T08:45:24.507Z,981.4
2022-10-24T08:47:26.263Z,981.4
2022-10-24T08:49:27.904Z,981.4
2022-10-24T08:51:29.033Z,981.4
2022-10-24T08:53:30.326Z,981.5
2022-10-24T08:55:47.945Z,981.5
2022-10-24T08:59:34.794Z,981.7
2022-10-24T09:01:36.054Z,981.8
2022-10-24T09:03:54.832Z,981.7
2022-10-24T09:05:38.007Z,981.8
2022-10-24T09:07:39.325Z,981.7
2022-10-24T09:09:40.863Z,981.8
2022-10-24T09:11:42.531Z,981.8
2022-10-24T09:13:43.578Z,981.8
2022-10-24T09:15:44.812Z,981.9
2022-10-24T09:17:45.785Z,981.9
2022-10-24T09:19:47.500Z,981.9
2022-10-24T09:21:48.904Z,981.9
2022-10-24T09:23:50.326Z,981.9
2022-10-24T09:27:52.825Z,981.9
2022-10-24T09:29:54.485Z,981.9
2022-10-24T09:31:55.733Z,981.9
2022-10-24T09:33:56.693Z,981.8
2022-10-24T09:37:59.383Z,981.8
2022-10-24T09:40:00.907Z,981.8
2022-10-24T09:44:03.146Z,981.8
2022-10-24T09:46:04.080Z,981.8
2022-10-24T09:48:05.861Z,981.9
2022-10-24T09:50:06.946Z,981.8
2022-10-24T09:52:07.927Z,981.9
2022-10-24T09:54:08.846Z,981.9
2022-10-24T09:56:10.202Z,981.8
2022-10-24T09:58:11.922Z,981.9
2022-10-24T10:00:13.060Z,982.1
2022-10-24T10:02:14.079Z,982.1
2022-10-24T10:04:17.135Z,982.1
2022-10-24T10:06:17.054Z,982.1
2022-10-24T10:08:18.435Z,982
2022-10-24T10:10:19.826Z,982
2022-10-24T10:12:21.611Z,982.1
2022-10-24T10:14:22.651Z,982
2022-10-24T10:16:24.239Z,982.1
2022-10-24T10:18:25.528Z,982.1
2022-10-24T10:20:26.764Z,982.2
2022-10-24T10:22:28.048Z,982.1
2022-10-24T10:24:29.727Z,982.1
2022-10-24T10:26:31.017Z,982.2
2022-10-24T10:28:32.462Z,982.2
2022-10-24T10:30:33.669Z,982.3
2022-10-24T10:32:35.007Z,982.2
2022-10-24T10:34:35.975Z,982.2
2022-10-24T10:36:37.413Z,982.2
2022-10-24T10:38:38.509Z,982.2
2022-10-24T10:40:40.257Z,982.2
2022-10-24T10:42:41.240Z,982.2
2022-10-24T10:44:42.242Z,982.2
2022-10-24T10:46:44.084Z,982.2
2022-10-24T10:48:45.970Z,982.2
2022-10-24T10:50:47.832Z,982.2
2022-10-24T10:52:49.106Z,982.2
2022-10-24T10:54:50.626Z,982.2
2022-10-24T10:56:51.602Z,982.2
2022-10-24T10:58:53.387Z,982.2
2022-10-24T11:00:54.579Z,982.2
2022-10-24T11:02:55.976Z,982
2022-10-24T11:04:57.255Z,982.1
2022-10-24T11:09:00.526Z,981.9
2022-10-24T11:11:01.348Z,981.9
2022-10-24T11:13:02.888Z,982
2022-10-24T11:15:03.635Z,982
2022-10-24T11:19:06.537Z,982
2022-10-24T11:21:07.800Z,982.1
2022-10-24T11:23:08.963Z,982
2022-10-24T11:25:10.159Z,982.1
2022-10-24T11:27:11.200Z,982
2022-10-24T11:29:12.491Z,982.1
2022-10-24T11:31:13.768Z,982.1
2022-10-24T11:33:15.343Z,982.2
2022-10-24T11:35:16.266Z,982.1
2022-10-24T11:37:17.999Z,982.3
2022-10-24T11:39:19.394Z,982.3
2022-10-24T11:41:20.342Z,982.2
2022-10-24T11:43:21.796Z,982.2
2022-10-24T11:45:23.221Z,982.2
2022-10-24T11:47:25.027Z,982.2
2022-10-24T11:49:26.105Z,982.2
2022-10-24T11:51:27.338Z,982.2
2022-10-24T11:53:28.190Z,982.3
2022-10-24T11:55:30.008Z,982.3
2022-10-24T11:57:31.199Z,982.3
2022-10-24T11:59:32.180Z,982.4
2022-10-24T12:01:33.228Z,982.4
2022-10-24T12:03:34.694Z,982.4
2022-10-24T12:05:36.203Z,982.3
2022-10-24T12:07:37.658Z,982.2
2022-10-24T12:09:38.907Z,982.2
2022-10-24T12:11:40.279Z,982.2
2022-10-24T12:13:41.310Z,982
2022-10-24T12:15:43.037Z,981.9
2022-10-24T12:17:45.066Z,982
2022-10-24T12:19:46.121Z,982.2
2022-10-24T12:21:47.066Z,982.4
2022-10-24T12:23:48.301Z,982.2
2022-10-24T12:25:49.682Z,982
2022-10-24T12:27:51.248Z,982.1
2022-10-24T12:29:52.690Z,982
2022-10-24T12:31:54.447Z,982.2
2022-10-24T12:33:56.205Z,982.1
2022-10-24T12:35:57.815Z,982.1
2022-10-24T12:37:59.086Z,982
2022-10-24T12:40:00.847Z,982.1
2022-10-24T12:42:02.175Z,982.2
2022-10-24T12:44:03.583Z,982.2
2022-10-24T12:46:09.344Z,982.1
2022-10-24T12:48:06.395Z,982
2022-10-24T12:50:51.488Z,981.9
2022-10-24T12:52:52.805Z,981.9
2022-10-24T12:54:54.003Z,982
2022-10-24T12:56:55.230Z,982
2022-10-24T12:58:56.647Z,981.9
2022-10-24T13:00:58.476Z,981.9
2022-10-24T13:02:59.863Z,981.9
2022-10-24T13:05:00.784Z,981.8
2022-10-24T13:07:02.521Z,981.8
2022-10-24T13:09:04.262Z,981.9
2022-10-24T13:11:05.903Z,981.9
2022-10-24T13:17:10.568Z,981.8
2022-10-24T13:19:11.747Z,981.8
2022-10-24T13:21:14.215Z,981.9
2022-10-24T13:23:13.829Z,981.7
2022-10-24T13:25:15.595Z,981.7
2022-10-24T13:27:17.444Z,981.7
2022-10-24T13:29:18.500Z,981.6
2022-10-24T13:31:20.317Z,981.6
2022-10-24T13:33:22.166Z,981.6
2022-10-24T13:35:23.666Z,981.5
2022-10-24T13:37:25.368Z,981.6
2022-10-24T13:39:26.612Z,981.6
2022-10-24T13:43:29.678Z,981.8
2022-10-24T13:45:30.760Z,981.8
2022-10-24T13:47:32.088Z,981.8
2022-10-24T13:49:33.918Z,981.8
2022-10-24T13:51:35.029Z,981.8
2022-10-24T13:55:36.999Z,981.7
2022-10-24T13:57:37.807Z,981.6
2022-10-24T13:59:39.013Z,981.6
2022-10-24T14:03:43.062Z,981.7
2022-10-24T14:05:43.930Z,981.7
2022-10-24T14:07:45.547Z,981.6
2022-10-24T14:09:46.474Z,981.7
2022-10-24T14:11:47.596Z,981.7
2022-10-24T14:13:48.473Z,981.6
2022-10-24T14:15:49.819Z,981.7
2022-10-24T14:17:51.443Z,981.7
2022-10-24T14:19:55.341Z,981.6
2022-10-24T14:21:54.344Z,981.7
2022-10-24T14:23:55.554Z,981.7
2022-10-24T14:25:57.071Z,981.8
2022-10-24T14:27:58.202Z,981.8
2022-10-24T14:29:59.161Z,981.9
2022-10-24T14:32:00.219Z,981.8
2022-10-24T14:34:02.033Z,981.8
2022-10-24T14:36:03.479Z,981.7
2022-10-24T14:38:07.540Z,981.8
2022-10-24T14:40:06.195Z,981.8
2022-10-24T14:42:07.368Z,981.7
2022-10-24T14:44:08.981Z,981.8
2022-10-24T14:46:10.697Z,981.8
2022-10-24T14:48:12.191Z,981.9
2022-10-24T14:50:13.019Z,981.9
2022-10-24T14:52:13.900Z,981.8
2022-10-24T14:54:15.110Z,981.7
2022-10-24T14:56:16.341Z,981.8
2022-10-24T14:58:17.981Z,981.8
2022-10-24T15:00:19.348Z,981.8
2022-10-24T15:02:20.665Z,981.7
2022-10-24T15:04:21.696Z,981.8
2022-10-24T15:06:23.471Z,981.7
2022-10-24T15:08:24.790Z,981.8
2022-10-24T15:10:26.112Z,981.8
2022-10-24T15:12:27.679Z,981.7
2022-10-24T15:14:29.478Z,981.7
2022-10-24T15:18:31.700Z,981.7
2022-10-24T15:20:33.224Z,981.8
2022-10-24T15:22:34.277Z,981.8
2022-10-24T15:24:36.758Z,981.7
2022-10-24T15:26:37.121Z,981.7
2022-10-24T15:28:38.601Z,981.6
2022-10-24T15:30:39.709Z,981.6
2022-10-24T15:32:41.258Z,981.6
2022-10-24T15:34:42.108Z,981.6
2022-10-24T15:36:43.116Z,981.5
2022-10-24T15:38:44.343Z,981.5
2022-10-24T15:40:45.475Z,981.6
2022-10-24T15:42:46.899Z,981.6
2022-10-24T15:44:47.950Z,981.6
2022-10-24T15:46:49.406Z,981.6
2022-10-24T15:48:50.757Z,981.7
2022-10-24T15:50:51.943Z,981.6
2022-10-24T15:52:53.545Z,981.7
2022-10-24T15:54:54.838Z,981.7
2022-10-24T15:56:58.614Z,981.8
2022-10-24T15:58:58.089Z,981.8
2022-10-24T16:00:59.382Z,981.8
2022-10-24T16:03:00.800Z,981.8
2022-10-24T16:05:01.842Z,981.8
2022-10-24T16:07:03.270Z,981.8
2022-10-24T16:09:04.563Z,981.8
2022-10-24T16:11:07.599Z,981.8
2022-10-24T16:13:06.549Z,981.8
2022-10-24T16:15:07.946Z,981.8
2022-10-24T16:17:08.911Z,981.9
2022-10-24T16:19:10.520Z,982
2022-10-24T16:21:11.389Z,981.9
2022-10-24T16:23:12.799Z,981.9
2022-10-24T16:25:14.565Z,982
2022-10-24T16:27:15.925Z,982.1
2022-10-24T16:29:17.264Z,982.1
2022-10-24T16:31:18.469Z,982.1
2022-10-24T16:33:19.889Z,982.1
2022-10-24T16:35:21.643Z,982.1
2022-10-24T16:37:23.241Z,982.1
2022-10-24T16:39:25.061Z,982.2
2022-10-24T16:41:26.246Z,982.3
2022-10-24T16:43:28.034Z,982.4
2022-10-24T16:45:29.358Z,982.3
2022-10-24T16:49:31.613Z,982.3
2022-10-24T16:51:32.753Z,982.4
2022-10-24T16:53:34.121Z,982.3
2022-10-24T16:55:35.162Z,982.4
2022-10-24T16:59:37.606Z,982.3
2022-10-24T17:01:39.177Z,982.3
2022-10-24T17:03:40.196Z,982.3
2022-10-24T17:05:41.272Z,982.4
2022-10-24T17:07:42.722Z,982.3
2022-10-24T17:09:43.815Z,982.3
2022-10-24T17:11:46.208Z,982.4
2022-10-24T17:13:46.754Z,982.3
2022-10-24T17:15:48.400Z,982.4
2022-10-24T17:17:49.534Z,982.4
2022-10-24T17:19:50.762Z,982.4
2022-10-24T17:21:52.501Z,982.5
2022-10-24T17:23:54.219Z,982.4
2022-10-24T17:25:55.977Z,982.4
2022-10-24T17:27:57.393Z,982.5
2022-10-24T17:29:59.092Z,982.4
2022-10-24T17:32:00.358Z,982.4
2022-10-24T17:34:02.129Z,982.4
2022-10-24T17:36:03.183Z,982.5
2022-10-24T17:38:04.448Z,982.5
2022-10-24T17:40:05.691Z,982.4
2022-10-24T17:42:06.925Z,982.4
2022-10-24T17:44:08.677Z,982.4
2022-10-24T17:46:10.472Z,982.4
2022-10-24T17:48:12.185Z,982.5
2022-10-24T17:50:13.950Z,982.6
2022-10-24T17:52:15.731Z,982.7
2022-10-24T17:54:16.842Z,982.6
2022-10-24T17:56:18.474Z,982.6
2022-10-24T17:58:19.477Z,982.7
2022-10-24T18:00:20.422Z,982.7
2022-10-24T18:02:21.419Z,982.6
2022-10-24T18:04:22.464Z,982.6
2022-10-24T18:06:23.628Z,982.7
2022-10-24T18:08:25.209Z,982.8
2022-10-24T18:10:27.059Z,982.8
2022-10-24T18:12:28.039Z,982.8
2022-10-24T18:14:29.120Z,982.8
2022-10-24T18:16:30.731Z,982.8
2022-10-24T18:18:31.358Z,982.8
2022-10-24T18:20:33.181Z,982.8
2022-10-24T18:22:34.269Z,982.8
2022-10-24T18:24:35.521Z,983
2022-10-24T18:26:37.152Z,982.9
2022-10-24T18:28:38.877Z,983.1
2022-10-24T18:30:39.824Z,983.2
2022-10-24T18:32:41.543Z,983.2
2022-10-24T18:34:42.814Z,983.2
2022-10-24T18:36:43.848Z,983.1
2022-10-24T18:38:45.620Z,983.1
2022-10-24T18:40:47.173Z,983.1
2022-10-24T18:42:49.067Z,983.1
2022-10-24T18:44:51.190Z,983.2
2022-10-24T18:46:51.277Z,983.1
2022-10-24T18:48:52.536Z,983.1
2022-10-24T18:50:53.497Z,983.2
2022-10-24T18:52:54.464Z,983.1
2022-10-24T18:54:55.334Z,983.1
2022-10-24T18:56:56.705Z,983.1
2022-10-24T18:58:57.873Z,983
2022-10-24T19:00:59.706Z,983
2022-10-24T19:03:00.937Z,983.1
2022-10-24T19:05:02.752Z,983.1
2022-10-24T19:07:04.301Z,983.3
2022-10-24T19:09:05.953Z,983.4
2022-10-24T19:13:09.016Z,983.4
2022-10-24T19:15:10.273Z,983.4
2022-10-24T19:17:12.136Z,983.4
2022-10-24T19:19:13.280Z,983.3
2022-10-24T19:23:15.279Z,983
2022-10-24T19:25:16.975Z,983
2022-10-24T19:29:19.551Z,983
2022-10-24T19:31:21.288Z,983.1
2022-10-24T19:33:22.696Z,983.2
2022-10-24T19:34:06.537Z,983.2
2022-10-24T19:36:08.192Z,983.3
2022-10-24T19:38:09.184Z,983.4
2022-10-24T19:40:10.562Z,983.4
2022-10-24T19:42:11.518Z,983.4
2022-10-24T19:44:12.486Z,983.4
2022-10-24T19:46:19.996Z,983.4
2022-10-24T19:48:15.477Z,983.4
2022-10-24T19:50:17.088Z,983.4
2022-10-24T19:52:18.724Z,983.3
2022-10-24T19:54:20.148Z,983.4
2022-10-24T19:56:22.726Z,983.3
2022-10-24T19:58:23.306Z,983.3
2022-10-24T20:00:25.000Z,983.3
2022-10-24T20:02:26.078Z,983.4
2022-10-24T20:04:27.143Z,983.5
2022-10-24T20:06:28.054Z,983.3
2022-10-24T20:08:29.227Z,983.5
2022-10-24T20:10:31.061Z,983.4
2022-10-24T20:12:32.630Z,983.5
2022-10-24T20:14:34.070Z,983.5
2022-10-24T20:16:35.376Z,983.5
2022-10-24T20:18:37.108Z,983.5
2022-10-24T20:22:39.013Z,983.6
2022-10-24T20:24:40.253Z,983.6
2022-10-24T20:26:41.188Z,983.6
2022-10-24T20:28:42.289Z,983.5
2022-10-24T20:30:43.160Z,983.6
2022-10-24T20:32:44.751Z,983.6
2022-10-24T20:34:45.707Z,983.7
2022-10-24T20:38:47.924Z,983.6
2022-10-24T20:40:48.901Z,983.9
2022-10-24T20:42:50.089Z,983.9
2022-10-24T20:44:51.578Z,983.9
2022-10-24T20:48:53.976Z,983.9
2022-10-24T20:50:55.807Z,983.9
2022-10-24T20:52:56.759Z,984
2022-10-24T20:54:58.255Z,984.1
2022-10-24T20:59:01.128Z,984.1
2022-10-24T21:01:02.436Z,984.1
2022-10-24T21:03:04.030Z,984
2022-10-24T21:05:05.083Z,984
2022-10-24T21:07:06.970Z,984.1
2022-10-24T21:09:08.615Z,984.1
2022-10-24T21:11:10.377Z,984.1
2022-10-24T21:13:11.426Z,984.1
2022-10-24T21:15:12.510Z,984.1
2022-10-24T21:17:13.951Z,984.3
2022-10-24T21:19:15.130Z,984.4
2022-10-24T21:21:16.815Z,984.5
2022-10-24T21:23:18.363Z,984.4
2022-10-24T21:25:19.891Z,984.5
2022-10-24T21:27:20.878Z,984.5
2022-10-24T21:29:33.053Z,984.5
2022-10-24T21:31:23.685Z,984.5
2022-10-24T21:33:24.913Z,984.5
2022-10-24T21:35:26.123Z,984.6
2022-10-24T21:37:27.178Z,984.5
2022-10-24T21:39:28.679Z,984.4
2022-10-24T21:41:30.188Z,984.4
2022-10-24T21:43:31.229Z,984.4
2022-10-24T21:45:32.498Z,984.4
2022-10-24T21:47:33.995Z,984.4
2022-10-24T21:49:35.734Z,984.5
2022-10-24T21:51:36.906Z,984.5
2022-10-24T21:53:38.469Z,984.4
2022-10-24T21:55:40.009Z,984.4
2022-10-24T21:57:41.751Z,984.4
2022-10-24T21:59:43.041Z,984.5
2022-10-24T22:01:44.171Z,984.6
2022-10-24T22:03:45.254Z,984.6
2022-10-24T22:05:46.967Z,984.5
2022-10-24T22:07:49.504Z,984.6
2022-10-24T22:09:49.438Z,984.7
2022-10-24T22:11:50.489Z,984.7
2022-10-24T22:13:51.882Z,984.6
2022-10-24T22:15:53.764Z,984.7
2022-10-24T22:17:54.675Z,984.7
2022-10-24T22:19:56.577Z,984.8
2022-10-24T22:21:58.060Z,984.7
2022-10-24T22:23:59.619Z,984.7
2022-10-24T22:26:01.103Z,984.7
2022-10-24T22:28:02.055Z,984.8
2022-10-24T22:30:02.987Z,984.7
2022-10-24T22:32:04.234Z,984.8
2022-10-24T22:34:05.300Z,984.7
2022-10-24T22:36:07.091Z,984.7
2022-10-24T22:38:08.422Z,984.7
2022-10-24T22:40:09.315Z,984.8
2022-10-24T22:42:11.541Z,984.9
2022-10-24T22:44:12.643Z,984.9
2022-10-24T22:46:13.762Z,984.9
2022-10-24T22:48:15.458Z,984.9
2022-10-24T22:50:16.462Z,984.9
2022-10-24T22:52:17.887Z,984.9
2022-10-24T22:54:19.125Z,985
2022-10-24T22:56:20.654Z,985
2022-10-24T22:58:22.516Z,985
2022-10-24T23:00:23.632Z,984.9
2022-10-24T23:02:25.332Z,985
2022-10-24T23:04:26.923Z,985
2022-10-24T23:06:27.833Z,985
2022-10-24T23:08:29.219Z,984.9
2022-10-24T23:10:30.704Z,985
2022-10-24T23:12:32.151Z,985
2022-10-24T23:14:33.532Z,985
2022-10-24T23:16:34.677Z,985.1
2022-10-24T23:18:36.022Z,985.1
2022-10-24T23:20:37.523Z,985.1
2022-10-24T23:24:40.778Z,985.1
2022-10-24T23:28:44.340Z,985.2
2022-10-24T23:30:46.193Z,985.1
2022-10-24T23:32:48.191Z,985.1
2022-10-24T23:34:49.119Z,985.1
2022-10-24T23:36:50.023Z,985.1
2022-10-24T23:38:51.274Z,985.1
2022-10-24T23:40:52.548Z,985.1
2022-10-24T23:42:53.857Z,985.1
2022-10-24T23:44:55.562Z,985.1
2022-10-24T23:46:56.666Z,985.1
2022-10-24T23:48:58.129Z,985.1
2022-10-24T23:50:59.957Z,985.1
2022-10-24T23:53:01.583Z,985.1
2022-10-24T23:55:03.188Z,985.1
2022-10-24T23:57:04.127Z,985.1
2022-10-24T23:59:05.538Z,984.9
